sensor_id;sensor_type;location;lat;lon;timestamp;pressure;altitude;pressure_sealevel;temperature;humidity
12203;BME280;6164;42.178;24.622;2023-05-08T00:01:25;99877.03;;;14.59;82.53
12203;BME280;6164;42.178;24.622;2023-05-08T00:03:52;99881.72;;;14.57;82.28
12203;BME280;6164;42.178;24.622;2023-05-08T00:06:19;99876.59;;;14.56;82.15
12203;BME280;6164;42.178;24.622;2023-05-08T00:08:47;99881.25;;;14.53;82.28
12203;BME280;6164;42.178;24.622;2023-05-08T00:11:13;99878.78;;;14.52;82.72
12203;BME280;6164;42.178;24.622;2023-05-08T00:13:40;99878.97;;;14.50;82.28
12203;BME280;6164;42.178;24.622;2023-05-08T00:16:07;99881.19;;;14.47;82.14
12203;BME280;6164;42.178;24.622;2023-05-08T00:18:35;99877.97;;;14.37;81.82
12203;BME280;6164;42.178;24.622;2023-05-08T00:21:03;99872.56;;;14.45;82.04
12203;BME280;6164;42.178;24.622;2023-05-08T00:23:30;99866.97;;;14.40;81.23
12203;BME280;6164;42.178;24.622;2023-05-08T00:25:58;99867.75;;;14.34;80.57
12203;BME280;6164;42.178;24.622;2023-05-08T00:28:25;99864.91;;;14.35;79.66
12203;BME280;6164;42.178;24.622;2023-05-08T00:30:51;99851.16;;;14.32;79.97
12203;BME280;6164;42.178;24.622;2023-05-08T00:33:18;99866.28;;;14.31;80.13
12203;BME280;6164;42.178;24.622;2023-05-08T00:35:45;99864.81;;;14.29;80.14
12203;BME280;6164;42.178;24.622;2023-05-08T00:38:12;99864.34;;;14.25;79.51
12203;BME280;6164;42.178;24.622;2023-05-08T00:40:38;99861.84;;;14.24;79.09
12203;BME280;6164;42.178;24.622;2023-05-08T00:43:06;99871.66;;;14.23;79.33
12203;BME280;6164;42.178;24.622;2023-05-08T00:45:35;99872.41;;;14.17;79.36
12203;BME280;6164;42.178;24.622;2023-05-08T00:48:03;99857.50;;;14.02;78.86
12203;BME280;6164;42.178;24.622;2023-05-08T00:50:31;99878.38;;;14.05;79.43
12203;BME280;6164;42.178;24.622;2023-05-08T00:52:59;99888.59;;;14.08;79.48
12203;BME280;6164;42.178;24.622;2023-05-08T00:55:28;99888.97;;;14.05;79.57
12203;BME280;6164;42.178;24.622;2023-05-08T00:57:55;99888.63;;;13.93;79.42
12203;BME280;6164;42.178;24.622;2023-05-08T01:00:23;99908.94;;;13.49;80.35
12203;BME280;6164;42.178;24.622;2023-05-08T01:02:50;99894.34;;;13.31;81.59
12203;BME280;6164;42.178;24.622;2023-05-08T01:05:17;99899.28;;;13.34;82.11
12203;BME280;6164;42.178;24.622;2023-05-08T01:07:44;99900.13;;;13.11;82.97
12203;BME280;6164;42.178;24.622;2023-05-08T01:10:11;99904.66;;;12.95;85.84
12203;BME280;6164;42.178;24.622;2023-05-08T01:12:52;99905.31;;;12.97;86.82
12203;BME280;6164;42.178;24.622;2023-05-08T01:15:30;99911.44;;;13.05;87.48
12203;BME280;6164;42.178;24.622;2023-05-08T01:18:06;99913.91;;;13.07;87.76
12203;BME280;6164;42.178;24.622;2023-05-08T01:20:45;99903.69;;;12.96;88.74
12203;BME280;6164;42.178;24.622;2023-05-08T01:23:37;99912.31;;;12.90;88.63
12203;BME280;6164;42.178;24.622;2023-05-08T01:26:24;99913.03;;;12.84;89.24
12203;BME280;6164;42.178;24.622;2023-05-08T01:32:09;99909.28;;;12.70;91.47
12203;BME280;6164;42.178;24.622;2023-05-08T01:34:41;99903.06;;;12.63;90.47
12203;BME280;6164;42.178;24.622;2023-05-08T01:37:13;99910.66;;;12.66;90.84
12203;BME280;6164;42.178;24.622;2023-05-08T01:39:44;99913.31;;;12.66;91.73
12203;BME280;6164;42.178;24.622;2023-05-08T01:42:18;99917.28;;;12.62;91.23
12203;BME280;6164;42.178;24.622;2023-05-08T01:44:51;99904.41;;;12.59;91.51
12203;BME280;6164;42.178;24.622;2023-05-08T01:47:23;99905.22;;;12.60;92.66
12203;BME280;6164;42.178;24.622;2023-05-08T01:49:57;99909.03;;;12.57;93.28
12203;BME280;6164;42.178;24.622;2023-05-08T01:52:31;99907.91;;;12.52;93.95
12203;BME280;6164;42.178;24.622;2023-05-08T01:55:03;99914.38;;;12.49;94.25
12203;BME280;6164;42.178;24.622;2023-05-08T01:57:36;99912.25;;;12.45;94.86
12203;BME280;6164;42.178;24.622;2023-05-08T02:00:04;99911.59;;;12.43;95.79
12203;BME280;6164;42.178;24.622;2023-05-08T02:02:34;99911.75;;;12.41;96.00
12203;BME280;6164;42.178;24.622;2023-05-08T02:05:03;99901.69;;;12.37;95.92
12203;BME280;6164;42.178;24.622;2023-05-08T02:07:34;99900.38;;;12.33;96.12
12203;BME280;6164;42.178;24.622;2023-05-08T02:10:03;99907.53;;;12.24;95.82
12203;BME280;6164;42.178;24.622;2023-05-08T02:12:31;99898.59;;;12.25;95.70
12203;BME280;6164;42.178;24.622;2023-05-08T02:14:59;99919.97;;;12.16;96.04
12203;BME280;6164;42.178;24.622;2023-05-08T02:17:27;99908.91;;;12.12;96.59
12203;BME280;6164;42.178;24.622;2023-05-08T02:19:57;99907.41;;;12.10;96.87
12203;BME280;6164;42.178;24.622;2023-05-08T02:22:25;99900.19;;;11.96;97.72
12203;BME280;6164;42.178;24.622;2023-05-08T02:24:53;99900.03;;;11.97;97.92
12203;BME280;6164;42.178;24.622;2023-05-08T02:27:21;99905.47;;;12.04;97.66
12203;BME280;6164;42.178;24.622;2023-05-08T02:29:52;99916.06;;;11.96;98.74
12203;BME280;6164;42.178;24.622;2023-05-08T02:32:21;99897.41;;;11.89;98.85
12203;BME280;6164;42.178;24.622;2023-05-08T02:34:52;99909.47;;;11.83;99.27
12203;BME280;6164;42.178;24.622;2023-05-08T02:37:21;99910.31;;;11.84;99.61
12203;BME280;6164;42.178;24.622;2023-05-08T02:39:50;99920.06;;;11.59;100.00
12203;BME280;6164;42.178;24.622;2023-05-08T02:42:19;99918.25;;;11.68;100.00
12203;BME280;6164;42.178;24.622;2023-05-08T02:44:46;99920.41;;;11.72;100.00
12203;BME280;6164;42.178;24.622;2023-05-08T02:47:17;99916.94;;;11.72;100.00
12203;BME280;6164;42.178;24.622;2023-05-08T02:49:51;99916.25;;;11.70;100.00
12203;BME280;6164;42.178;24.622;2023-05-08T02:52:26;99910.47;;;11.66;100.00
12203;BME280;6164;42.178;24.622;2023-05-08T02:54:57;99915.44;;;11.45;100.00
12203;BME280;6164;42.178;24.622;2023-05-08T02:57:32;99921.72;;;11.44;100.00
12203;BME280;6164;42.178;24.622;2023-05-08T03:00:04;99924.38;;;11.36;100.00
12203;BME280;6164;42.178;24.622;2023-05-08T03:02:38;99900.22;;;11.07;100.00
12203;BME280;6164;42.178;24.622;2023-05-08T03:05:12;99925.66;;;11.00;100.00
12203;BME280;6164;42.178;24.622;2023-05-08T03:07:46;99926.94;;;10.88;100.00
12203;BME280;6164;42.178;24.622;2023-05-08T03:10:17;99930.53;;;10.79;100.00
12203;BME280;6164;42.178;24.622;2023-05-08T03:12:48;99925.44;;;10.78;100.00
12203;BME280;6164;42.178;24.622;2023-05-08T03:15:20;99935.88;;;10.95;100.00
12203;BME280;6164;42.178;24.622;2023-05-08T03:17:53;99934.38;;;10.85;100.00
12203;BME280;6164;42.178;24.622;2023-05-08T03:20:22;99931.72;;;10.77;100.00
12203;BME280;6164;42.178;24.622;2023-05-08T03:22:52;99934.50;;;10.75;100.00
12203;BME280;6164;42.178;24.622;2023-05-08T03:25:22;99944.91;;;10.77;100.00
12203;BME280;6164;42.178;24.622;2023-05-08T03:27:52;99945.56;;;10.71;100.00
12203;BME280;6164;42.178;24.622;2023-05-08T03:30:20;99948.13;;;10.54;100.00
12203;BME280;6164;42.178;24.622;2023-05-08T03:32:48;99951.22;;;10.42;100.00
12203;BME280;6164;42.178;24.622;2023-05-08T03:35:17;99951.22;;;10.42;100.00
12203;BME280;6164;42.178;24.622;2023-05-08T03:37:44;99947.28;;;10.46;100.00
12203;BME280;6164;42.178;24.622;2023-05-08T03:40:12;99951.56;;;10.47;100.00
12203;BME280;6164;42.178;24.622;2023-05-08T03:42:40;99956.66;;;10.40;100.00
12203;BME280;6164;42.178;24.622;2023-05-08T03:45:08;99956.16;;;10.37;100.00
12203;BME280;6164;42.178;24.622;2023-05-08T03:47:36;99962.25;;;10.37;100.00
12203;BME280;6164;42.178;24.622;2023-05-08T03:50:04;99961.44;;;10.37;100.00
12203;BME280;6164;42.178;24.622;2023-05-08T03:52:31;99960.94;;;10.41;100.00
12203;BME280;6164;42.178;24.622;2023-05-08T03:54:58;99970.56;;;10.50;100.00
12203;BME280;6164;42.178;24.622;2023-05-08T03:57:32;99954.69;;;10.42;100.00
12203;BME280;6164;42.178;24.622;2023-05-08T04:00:05;99973.53;;;10.47;100.00
12203;BME280;6164;42.178;24.622;2023-05-08T04:02:37;99975.03;;;10.58;100.00
12203;BME280;6164;42.178;24.622;2023-05-08T04:05:15;99977.72;;;10.74;100.00
12203;BME280;6164;42.178;24.622;2023-05-08T04:07:48;99967.03;;;10.76;100.00
12203;BME280;6164;42.178;24.622;2023-05-08T04:10:23;99976.47;;;10.86;100.00
12203;BME280;6164;42.178;24.622;2023-05-08T04:12:57;99983.09;;;10.98;100.00
12203;BME280;6164;42.178;24.622;2023-05-08T04:15:30;99978.03;;;11.13;100.00
12203;BME280;6164;42.178;24.622;2023-05-08T04:18:05;99980.16;;;11.25;100.00
12203;BME280;6164;42.178;24.622;2023-05-08T04:20:34;99981.19;;;11.32;100.00
12203;BME280;6164;42.178;24.622;2023-05-08T04:23:06;99980.38;;;11.40;100.00
12203;BME280;6164;42.178;24.622;2023-05-08T04:25:35;99973.25;;;11.48;100.00
12203;BME280;6164;42.178;24.622;2023-05-08T04:28:06;99978.25;;;11.67;100.00
12203;BME280;6164;42.178;24.622;2023-05-08T04:30:33;99972.78;;;11.85;100.00
12203;BME280;6164;42.178;24.622;2023-05-08T04:33:01;99974.78;;;11.99;100.00
12203;BME280;6164;42.178;24.622;2023-05-08T04:35:29;99969.94;;;12.11;100.00
12203;BME280;6164;42.178;24.622;2023-05-08T04:37:57;99971.56;;;12.20;100.00
12203;BME280;6164;42.178;24.622;2023-05-08T04:40:24;99968.09;;;12.27;100.00
12203;BME280;6164;42.178;24.622;2023-05-08T04:42:51;99972.66;;;12.41;100.00
12203;BME280;6164;42.178;24.622;2023-05-08T04:45:19;99971.47;;;12.52;100.00
12203;BME280;6164;42.178;24.622;2023-05-08T04:47:46;99964.97;;;12.62;100.00
12203;BME280;6164;42.178;24.622;2023-05-08T04:50:12;99970.03;;;12.80;100.00
12203;BME280;6164;42.178;24.622;2023-05-08T04:52:39;99967.81;;;12.91;100.00
12203;BME280;6164;42.178;24.622;2023-05-08T04:55:08;99959.97;;;13.06;100.00
12203;BME280;6164;42.178;24.622;2023-05-08T04:57:35;99953.25;;;13.18;100.00
12203;BME280;6164;42.178;24.622;2023-05-08T05:00:02;99964.88;;;13.40;100.00
12203;BME280;6164;42.178;24.622;2023-05-08T05:02:31;99962.25;;;13.54;99.57
12203;BME280;6164;42.178;24.622;2023-05-08T05:04:58;99961.50;;;13.68;97.60
12203;BME280;6164;42.178;24.622;2023-05-08T05:07:25;99952.72;;;13.82;95.56
12203;BME280;6164;42.178;24.622;2023-05-08T05:09:52;99958.59;;;13.92;94.95
12203;BME280;6164;42.178;24.622;2023-05-08T05:12:19;99953.97;;;14.09;91.89
12203;BME280;6164;42.178;24.622;2023-05-08T05:14:45;99941.16;;;14.12;90.90
12203;BME280;6164;42.178;24.622;2023-05-08T05:17:12;99959.25;;;14.31;89.29
12203;BME280;6164;42.178;24.622;2023-05-08T05:19:40;99956.50;;;14.39;87.14
12203;BME280;6164;42.178;24.622;2023-05-08T05:22:07;99946.41;;;14.49;84.96
12203;BME280;6164;42.178;24.622;2023-05-08T05:24:33;99946.59;;;14.63;82.44
12203;BME280;6164;42.178;24.622;2023-05-08T05:27:00;99946.28;;;14.72;81.10
12203;BME280;6164;42.178;24.622;2023-05-08T05:29:27;99942.50;;;14.81;79.45
12203;BME280;6164;42.178;24.622;2023-05-08T05:31:54;99927.13;;;14.77;78.69
12203;BME280;6164;42.178;24.622;2023-05-08T05:34:21;99940.44;;;14.98;77.72
12203;BME280;6164;42.178;24.622;2023-05-08T05:36:49;99937.31;;;15.09;77.78
12203;BME280;6164;42.178;24.622;2023-05-08T05:39:16;99923.44;;;15.13;78.27
12203;BME280;6164;42.178;24.622;2023-05-08T05:41:43;99939.72;;;15.25;75.28
12203;BME280;6164;42.178;24.622;2023-05-08T05:44:09;99938.00;;;15.38;72.64
12203;BME280;6164;42.178;24.622;2023-05-08T05:46:36;99943.03;;;15.48;72.31
12203;BME280;6164;42.178;24.622;2023-05-08T05:49:03;99936.78;;;15.62;72.90
12203;BME280;6164;42.178;24.622;2023-05-08T05:51:29;99937.88;;;15.67;71.21
12203;BME280;6164;42.178;24.622;2023-05-08T05:53:57;99914.50;;;15.63;72.30
12203;BME280;6164;42.178;24.622;2023-05-08T05:56:25;99925.31;;;15.82;73.99
12203;BME280;6164;42.178;24.622;2023-05-08T05:58:52;99924.97;;;15.92;71.62
12203;BME280;6164;42.178;24.622;2023-05-08T06:01:19;99923.81;;;16.01;71.88
12203;BME280;6164;42.178;24.622;2023-05-08T06:03:45;99923.25;;;16.12;71.31
12203;BME280;6164;42.178;24.622;2023-05-08T06:06:12;99918.59;;;16.21;72.67
12203;BME280;6164;42.178;24.622;2023-05-08T06:08:39;99926.47;;;16.35;72.32
12203;BME280;6164;42.178;24.622;2023-05-08T06:11:07;99926.97;;;16.45;70.17
12203;BME280;6164;42.178;24.622;2023-05-08T06:13:34;99927.19;;;16.50;68.56
12203;BME280;6164;42.178;24.622;2023-05-08T06:16:01;99931.75;;;16.63;67.14
12203;BME280;6164;42.178;24.622;2023-05-08T06:18:28;99916.22;;;16.79;68.51
12203;BME280;6164;42.178;24.622;2023-05-08T06:20:58;99920.97;;;16.97;67.34
12203;BME280;6164;42.178;24.622;2023-05-08T06:23:25;99931.28;;;17.06;65.62
12203;BME280;6164;42.178;24.622;2023-05-08T06:25:52;99926.97;;;17.19;65.39
12203;BME280;6164;42.178;24.622;2023-05-08T06:28:20;99930.28;;;17.34;64.72
12203;BME280;6164;42.178;24.622;2023-05-08T06:30:50;99908.31;;;17.38;65.46
12203;BME280;6164;42.178;24.622;2023-05-08T06:33:16;99932.59;;;17.63;63.92
12203;BME280;6164;42.178;24.622;2023-05-08T06:35:45;99915.16;;;17.67;64.70
12203;BME280;6164;42.178;24.622;2023-05-08T06:38:12;99910.84;;;17.79;64.93
12203;BME280;6164;42.178;24.622;2023-05-08T06:40:41;99901.34;;;17.96;65.69
12203;BME280;6164;42.178;24.622;2023-05-08T06:43:08;99902.97;;;18.10;64.71
12203;BME280;6164;42.178;24.622;2023-05-08T06:45:36;99920.44;;;18.12;63.10
12203;BME280;6164;42.178;24.622;2023-05-08T06:48:03;99917.75;;;18.19;62.02
12203;BME280;6164;42.178;24.622;2023-05-08T06:50:30;99903.13;;;18.28;63.33
12203;BME280;6164;42.178;24.622;2023-05-08T06:52:56;99909.13;;;18.23;61.13
12203;BME280;6164;42.178;24.622;2023-05-08T06:55:23;99896.72;;;18.35;63.08
12203;BME280;6164;42.178;24.622;2023-05-08T06:57:50;99887.91;;;18.35;62.06
12203;BME280;6164;42.178;24.622;2023-05-08T07:00:17;99882.94;;;18.45;63.02
12203;BME280;6164;42.178;24.622;2023-05-08T07:02:46;99875.13;;;18.44;62.05
12203;BME280;6164;42.178;24.622;2023-05-08T07:05:12;99891.91;;;18.64;62.61
12203;BME280;6164;42.178;24.622;2023-05-08T07:07:39;99891.09;;;18.70;62.40
12203;BME280;6164;42.178;24.622;2023-05-08T07:10:07;99882.69;;;18.60;61.08
12203;BME280;6164;42.178;24.622;2023-05-08T07:12:34;99885.31;;;18.73;62.11
12203;BME280;6164;42.178;24.622;2023-05-08T07:15:01;99886.47;;;18.83;62.29
12203;BME280;6164;42.178;24.622;2023-05-08T07:17:28;99881.25;;;18.95;62.20
12203;BME280;6164;42.178;24.622;2023-05-08T07:19:56;99886.97;;;19.05;61.11
12203;BME280;6164;42.178;24.622;2023-05-08T07:22:23;99884.63;;;19.15;60.13
12203;BME280;6164;42.178;24.622;2023-05-08T07:24:49;99885.03;;;19.18;60.24
12203;BME280;6164;42.178;24.622;2023-05-08T07:27:16;99882.53;;;19.23;60.51
12203;BME280;6164;42.178;24.622;2023-05-08T07:29:43;99877.72;;;19.38;60.68
12203;BME280;6164;42.178;24.622;2023-05-08T07:32:09;99884.81;;;19.51;60.61
12203;BME280;6164;42.178;24.622;2023-05-08T07:34:36;99886.56;;;19.63;60.44
12203;BME280;6164;42.178;24.622;2023-05-08T07:37:04;99871.84;;;19.73;62.07
12203;BME280;6164;42.178;24.622;2023-05-08T07:39:31;99879.59;;;19.81;61.48
12203;BME280;6164;42.178;24.622;2023-05-08T07:41:58;99885.13;;;19.86;60.32
12203;BME280;6164;42.178;24.622;2023-05-08T07:44:24;99880.22;;;19.58;59.95
12203;BME280;6164;42.178;24.622;2023-05-08T07:46:51;99868.06;;;19.55;59.92
12203;BME280;6164;42.178;24.622;2023-05-08T07:49:18;99875.19;;;19.68;60.21
12203;BME280;6164;42.178;24.622;2023-05-08T07:51:44;99850.16;;;19.56;59.73
12203;BME280;6164;42.178;24.622;2023-05-08T07:54:13;99864.09;;;19.64;58.98
12203;BME280;6164;42.178;24.622;2023-05-08T07:56:39;99855.16;;;19.71;59.38
12203;BME280;6164;42.178;24.622;2023-05-08T07:59:06;99863.00;;;19.90;59.34
12203;BME280;6164;42.178;24.622;2023-05-08T08:01:33;99871.03;;;19.90;58.33
12203;BME280;6164;42.178;24.622;2023-05-08T08:04:03;99852.38;;;20.02;58.51
12203;BME280;6164;42.178;24.622;2023-05-08T08:06:30;99853.59;;;20.24;59.55
12203;BME280;6164;42.178;24.622;2023-05-08T08:08:57;99855.31;;;20.36;58.22
12203;BME280;6164;42.178;24.622;2023-05-08T08:11:25;99844.63;;;20.48;58.29
12203;BME280;6164;42.178;24.622;2023-05-08T08:13:51;99864.44;;;20.65;58.23
12203;BME280;6164;42.178;24.622;2023-05-08T08:16:18;99861.22;;;20.74;57.74
12203;BME280;6164;42.178;24.622;2023-05-08T08:18:45;99859.63;;;20.85;57.82
12203;BME280;6164;42.178;24.622;2023-05-08T08:21:11;99847.22;;;20.84;57.10
12203;BME280;6164;42.178;24.622;2023-05-08T08:23:38;99871.06;;;20.80;55.71
12203;BME280;6164;42.178;24.622;2023-05-08T08:26:05;99840.59;;;20.86;57.76
12203;BME280;6164;42.178;24.622;2023-05-08T08:28:33;99847.34;;;21.07;56.87
12203;BME280;6164;42.178;24.622;2023-05-08T08:31:00;99861.84;;;21.18;55.19
12203;BME280;6164;42.178;24.622;2023-05-08T08:33:27;99824.97;;;21.13;55.34
12203;BME280;6164;42.178;24.622;2023-05-08T08:35:54;99851.88;;;21.59;56.10
12203;BME280;6164;42.178;24.622;2023-05-08T08:38:20;99864.25;;;21.72;53.95
12203;BME280;6164;42.178;24.622;2023-05-08T08:40:47;99862.78;;;21.87;54.07
12203;BME280;6164;42.178;24.622;2023-05-08T08:43:14;99868.03;;;21.82;52.95
12203;BME280;6164;42.178;24.622;2023-05-08T08:45:43;99876.94;;;21.42;52.67
12203;BME280;6164;42.178;24.622;2023-05-08T08:48:10;99863.84;;;21.22;53.21
12203;BME280;6164;42.178;24.622;2023-05-08T08:50:41;99866.06;;;21.25;53.58
12203;BME280;6164;42.178;24.622;2023-05-08T08:53:10;99828.72;;;21.58;55.08
12203;BME280;6164;42.178;24.622;2023-05-08T08:55:43;99845.81;;;21.87;53.12
12203;BME280;6164;42.178;24.622;2023-05-08T08:58:15;99868.59;;;21.73;51.74
12203;BME280;6164;42.178;24.622;2023-05-08T09:00:45;99852.69;;;21.83;52.54
12203;BME280;6164;42.178;24.622;2023-05-08T09:03:13;99834.94;;;22.05;52.73
12203;BME280;6164;42.178;24.622;2023-05-08T09:05:43;99832.28;;;22.33;52.27
12203;BME280;6164;42.178;24.622;2023-05-08T09:08:10;99858.09;;;22.57;50.97
12203;BME280;6164;42.178;24.622;2023-05-08T09:10:37;99862.59;;;22.80;50.60
12203;BME280;6164;42.178;24.622;2023-05-08T09:13:03;99874.19;;;22.97;49.23
12203;BME280;6164;42.178;24.622;2023-05-08T09:15:30;99859.63;;;23.09;50.20
12203;BME280;6164;42.178;24.622;2023-05-08T09:17:59;99865.50;;;23.23;49.47
12203;BME280;6164;42.178;24.622;2023-05-08T09:20:27;99861.16;;;23.33;48.27
12203;BME280;6164;42.178;24.622;2023-05-08T09:22:54;99857.72;;;23.38;48.78
12203;BME280;6164;42.178;24.622;2023-05-08T09:25:22;99851.91;;;23.46;48.37
12203;BME280;6164;42.178;24.622;2023-05-08T09:27:48;99856.41;;;23.40;48.12
12203;BME280;6164;42.178;24.622;2023-05-08T09:30:15;99839.09;;;23.53;48.14
12203;BME280;6164;42.178;24.622;2023-05-08T09:32:43;99833.88;;;23.63;48.64
12203;BME280;6164;42.178;24.622;2023-05-08T09:35:11;99795.81;;;23.60;48.90
12203;BME280;6164;42.178;24.622;2023-05-08T09:37:38;99845.44;;;23.80;46.72
12203;BME280;6164;42.178;24.622;2023-05-08T09:40:15;99842.56;;;23.87;47.11
12203;BME280;6164;42.178;24.622;2023-05-08T09:42:43;99828.59;;;23.90;47.66
12203;BME280;6164;42.178;24.622;2023-05-08T09:45:10;99831.06;;;23.75;47.20
12203;BME280;6164;42.178;24.622;2023-05-08T09:47:37;99837.38;;;23.64;46.88
12203;BME280;6164;42.178;24.622;2023-05-08T09:50:06;99802.00;;;23.77;48.25
12203;BME280;6164;42.178;24.622;2023-05-08T09:52:35;99802.56;;;23.79;47.53
12203;BME280;6164;42.178;24.622;2023-05-08T09:55:05;99799.97;;;23.89;47.94
12203;BME280;6164;42.178;24.622;2023-05-08T09:57:33;99795.72;;;23.93;47.75
12203;BME280;6164;42.178;24.622;2023-05-08T10:00:04;99789.41;;;24.04;48.07
12203;BME280;6164;42.178;24.622;2023-05-08T10:02:32;99790.94;;;24.16;47.77
12203;BME280;6164;42.178;24.622;2023-05-08T10:05:00;99803.53;;;24.32;46.58
12203;BME280;6164;42.178;24.622;2023-05-08T10:07:29;99782.63;;;24.44;48.04
12203;BME280;6164;42.178;24.622;2023-05-08T10:09:59;99804.28;;;24.49;45.97
12203;BME280;6164;42.178;24.622;2023-05-08T10:12:27;99784.31;;;24.72;46.91
12203;BME280;6164;42.178;24.622;2023-05-08T10:14:54;99810.91;;;24.85;45.42
12203;BME280;6164;42.178;24.622;2023-05-08T10:17:25;99796.91;;;24.93;46.19
12203;BME280;6164;42.178;24.622;2023-05-08T10:19:57;99803.97;;;24.94;45.72
12203;BME280;6164;42.178;24.622;2023-05-08T10:22:25;99764.00;;;24.69;45.08
12203;BME280;6164;42.178;24.622;2023-05-08T10:24:55;99807.59;;;25.10;45.40
12203;BME280;6164;42.178;24.622;2023-05-08T10:27:29;99788.53;;;25.21;45.45
12203;BME280;6164;42.178;24.622;2023-05-08T10:30:00;99805.44;;;25.38;44.84
12203;BME280;6164;42.178;24.622;2023-05-08T10:32:34;99794.63;;;25.38;44.91
12203;BME280;6164;42.178;24.622;2023-05-08T10:35:04;99808.78;;;25.19;44.12
12203;BME280;6164;42.178;24.622;2023-05-08T10:37:34;99803.88;;;24.84;44.82
12203;BME280;6164;42.178;24.622;2023-05-08T10:40:03;99785.28;;;24.93;45.10
12203;BME280;6164;42.178;24.622;2023-05-08T10:42:32;99782.91;;;24.96;44.99
12203;BME280;6164;42.178;24.622;2023-05-08T10:44:59;99748.25;;;25.20;46.27
12203;BME280;6164;42.178;24.622;2023-05-08T10:47:31;99768.59;;;25.32;45.60
12203;BME280;6164;42.178;24.622;2023-05-08T10:50:03;99798.88;;;25.34;44.37
12203;BME280;6164;42.178;24.622;2023-05-08T10:52:35;99799.66;;;25.61;44.27
12203;BME280;6164;42.178;24.622;2023-05-08T10:55:19;99789.09;;;26.07;43.92
12203;BME280;6164;42.178;24.622;2023-05-08T10:58:08;99814.59;;;26.16;42.58
12203;BME280;6164;42.178;24.622;2023-05-08T11:03:45;99825.31;;;26.01;43.08
12203;BME280;6164;42.178;24.622;2023-05-08T11:06:12;99791.66;;;25.76;43.75
12203;BME280;6164;42.178;24.622;2023-05-08T11:08:48;99798.19;;;25.90;43.17
12203;BME280;6164;42.178;24.622;2023-05-08T11:11:23;99834.50;;;26.00;42.75
12203;BME280;6164;42.178;24.622;2023-05-08T11:13:57;99843.66;;;25.93;41.68
12203;BME280;6164;42.178;24.622;2023-05-08T11:17:02;99831.44;;;25.86;41.94
12203;BME280;6164;42.178;24.622;2023-05-08T11:19:28;99819.78;;;25.80;42.24
12203;BME280;6164;42.178;24.622;2023-05-08T11:22:24;99800.19;;;25.58;43.02
12203;BME280;6164;42.178;24.622;2023-05-08T11:24:57;99785.16;;;25.77;42.82
12203;BME280;6164;42.178;24.622;2023-05-08T11:30:35;99790.56;;;26.29;41.75
12203;BME280;6164;42.178;24.622;2023-05-08T11:33:13;99787.16;;;26.74;41.91
12203;BME280;6164;42.178;24.622;2023-05-08T11:35:51;99786.09;;;27.15;42.01
12203;BME280;6164;42.178;24.622;2023-05-08T11:38:24;99794.50;;;27.64;41.46
12203;BME280;6164;42.178;24.622;2023-05-08T11:40:58;99796.13;;;27.70;39.53
12203;BME280;6164;42.178;24.622;2023-05-08T11:43:55;99851.16;;;28.05;39.45
12203;BME280;6164;42.178;24.622;2023-05-08T11:46:36;99840.16;;;28.35;39.37
12203;BME280;6164;42.178;24.622;2023-05-08T11:49:04;99850.38;;;28.69;39.01
12203;BME280;6164;42.178;24.622;2023-05-08T11:51:31;99858.22;;;28.75;38.71
12203;BME280;6164;42.178;24.622;2023-05-08T11:53:59;99881.06;;;28.74;37.92
12203;BME280;6164;42.178;24.622;2023-05-08T11:56:26;99891.44;;;28.57;37.68
12203;BME280;6164;42.178;24.622;2023-05-08T11:59:01;99894.28;;;28.17;37.85
12203;BME280;6164;42.178;24.622;2023-05-08T12:01:31;99910.88;;;27.50;37.94
12203;BME280;6164;42.178;24.622;2023-05-08T12:04:02;99870.47;;;27.39;39.35
12203;BME280;6164;42.178;24.622;2023-05-08T12:06:30;99872.06;;;27.19;38.70
12203;BME280;6164;42.178;24.622;2023-05-08T12:08:57;99856.03;;;27.03;39.16
12203;BME280;6164;42.178;24.622;2023-05-08T12:11:24;99827.56;;;27.00;39.21
12203;BME280;6164;42.178;24.622;2023-05-08T12:13:52;99826.38;;;26.61;39.94
12203;BME280;6164;42.178;24.622;2023-05-08T12:16:19;99772.97;;;26.32;40.80
12203;BME280;6164;42.178;24.622;2023-05-08T12:18:50;99770.59;;;26.55;41.65
12203;BME280;6164;42.178;24.622;2023-05-08T12:21:18;99774.81;;;26.21;41.13
12203;BME280;6164;42.178;24.622;2023-05-08T12:23:45;99766.06;;;25.99;41.78
12203;BME280;6164;42.178;24.622;2023-05-08T12:26:12;99735.25;;;26.05;42.18
12203;BME280;6164;42.178;24.622;2023-05-08T12:28:39;99719.88;;;26.16;41.99
12203;BME280;6164;42.178;24.622;2023-05-08T12:31:06;99733.16;;;26.27;41.96
12203;BME280;6164;42.178;24.622;2023-05-08T12:33:33;99741.78;;;26.14;41.45
12203;BME280;6164;42.178;24.622;2023-05-08T12:36:01;99725.59;;;26.29;41.93
12203;BME280;6164;42.178;24.622;2023-05-08T12:38:29;99702.69;;;26.67;42.73
12203;BME280;6164;42.178;24.622;2023-05-08T12:40:56;99710.78;;;26.92;41.79
12203;BME280;6164;42.178;24.622;2023-05-08T12:43:32;99737.63;;;26.88;40.42
12203;BME280;6164;42.178;24.622;2023-05-08T12:45:59;99731.13;;;26.99;41.63
12203;BME280;6164;42.178;24.622;2023-05-08T12:48:26;99745.50;;;26.95;40.08
12203;BME280;6164;42.178;24.622;2023-05-08T12:50:53;99733.00;;;26.84;40.41
12203;BME280;6164;42.178;24.622;2023-05-08T12:53:21;99758.75;;;26.96;39.96
12203;BME280;6164;42.178;24.622;2023-05-08T12:55:53;99762.53;;;26.95;39.65
12203;BME280;6164;42.178;24.622;2023-05-08T12:58:23;99751.16;;;27.13;39.62
12203;BME280;6164;42.178;24.622;2023-05-08T13:00:51;99775.28;;;27.40;39.03
12203;BME280;6164;42.178;24.622;2023-05-08T13:03:22;99767.94;;;27.61;39.09
12203;BME280;6164;42.178;24.622;2023-05-08T13:05:51;99774.66;;;27.78;38.92
12203;BME280;6164;42.178;24.622;2023-05-08T13:08:18;99789.63;;;27.66;38.72
12203;BME280;6164;42.178;24.622;2023-05-08T13:10:47;99764.81;;;28.07;39.47
12203;BME280;6164;42.178;24.622;2023-05-08T13:13:15;99781.94;;;28.08;38.61
12203;BME280;6164;42.178;24.622;2023-05-08T13:15:43;99750.50;;;28.45;40.00
12203;BME280;6164;42.178;24.622;2023-05-08T13:18:10;99758.84;;;28.64;38.53